createdAt,value
2023-01-12T00:01:07.943Z,1.60
2023-01-12T00:04:12.970Z,1.33
2023-01-12T00:07:16.400Z,1.10
2023-01-12T00:10:18.230Z,0.80
2023-01-12T00:13:20.242Z,1.13
2023-01-12T00:16:37.596Z,1.30
2023-01-12T00:19:40.870Z,0.90
2023-01-12T00:22:42.708Z,1.10
2023-01-12T00:25:51.556Z,1.10
2023-01-12T00:28:53.336Z,1.00
2023-01-12T00:31:57.611Z,1.17
2023-01-12T00:34:59.663Z,1.07
2023-01-12T00:38:02.325Z,1.00
2023-01-12T00:41:32.549Z,1.10
2023-01-12T00:44:53.605Z,1.17
2023-01-12T00:47:55.915Z,1.50
2023-01-12T00:50:58.165Z,1.10
2023-01-12T00:54:04.545Z,1.27
2023-01-12T00:57:07.614Z,1.00
2023-01-12T01:00:10.548Z,0.83
2023-01-12T01:03:12.518Z,0.70
2023-01-12T01:06:14.414Z,0.70
2023-01-12T01:09:16.336Z,0.93
2023-01-12T01:12:18.206Z,0.93
2023-01-12T01:15:20.617Z,1.10
2023-01-12T01:18:22.551Z,1.10
2023-01-12T01:21:24.783Z,1.40
2023-01-12T01:24:26.803Z,1.27
2023-01-12T01:27:28.961Z,1.23
2023-01-12T01:30:30.881Z,1.17
2023-01-12T01:33:33.045Z,1.30
2023-01-12T01:36:35.537Z,1.10
2023-01-12T01:39:37.568Z,1.00
2023-01-12T01:42:40.606Z,0.70
2023-01-12T01:45:44.745Z,0.60
2023-01-12T01:48:47.731Z,0.60
2023-01-12T01:51:50.670Z,0.70
2023-01-12T01:55:11.133Z,0.57
2023-01-12T01:58:29.689Z,0.90
2023-01-12T02:01:31.790Z,0.70
2023-01-12T02:04:34.262Z,0.70
2023-01-12T02:07:36.415Z,0.53
2023-01-12T02:10:38.804Z,0.60
2023-01-12T02:13:59.070Z,0.50
2023-01-12T02:17:13.684Z,0.50
2023-01-12T02:20:43.015Z,0.30
2023-01-12T02:24:04.750Z,0.60
2023-01-12T02:27:18.530Z,0.60
2023-01-12T02:30:31.756Z,0.30
2023-01-12T02:33:44.579Z,0.60
2023-01-12T02:36:49.826Z,0.50
2023-01-12T02:39:59.839Z,0.43
2023-01-12T02:43:09.754Z,0.50
2023-01-12T02:46:28.235Z,0.50
2023-01-12T02:49:32.469Z,0.60
2023-01-12T02:52:34.941Z,0.53
2023-01-12T02:55:38.343Z,0.60
2023-01-12T02:58:49.786Z,0.97
2023-01-12T03:01:52.712Z,0.70
2023-01-12T03:04:55.391Z,0.57
2023-01-12T03:08:01.173Z,0.50
2023-01-12T03:11:16.250Z,0.40
2023-01-12T03:14:18.205Z,1.30
2023-01-12T03:17:31.487Z,0.60
2023-01-12T03:20:36.807Z,1.07
2023-01-12T03:23:45.011Z,0.63
2023-01-12T03:26:52.743Z,0.57
2023-01-12T03:30:10.571Z,0.70
2023-01-12T03:33:13.401Z,0.60
2023-01-12T03:36:31.046Z,0.57
2023-01-12T03:39:36.079Z,0.50
2023-01-12T03:42:39.328Z,0.50
2023-01-12T03:45:55.835Z,0.37
2023-01-12T03:49:10.101Z,0.97
2023-01-12T03:52:12.839Z,0.60
2023-01-12T03:55:17.654Z,0.80
2023-01-12T03:58:20.320Z,0.60
2023-01-12T04:01:22.804Z,0.67
2023-01-12T04:04:25.291Z,1.50
2023-01-12T04:07:27.357Z,0.67
2023-01-12T04:10:29.350Z,0.50
2023-01-12T04:13:31.308Z,0.43
2023-01-12T04:16:33.648Z,0.53
2023-01-12T04:19:35.569Z,0.73
2023-01-12T04:22:43.724Z,0.40
2023-01-12T04:25:45.663Z,0.57
2023-01-12T04:28:47.615Z,0.50
2023-01-12T04:31:49.628Z,0.40
2023-01-12T04:34:51.809Z,0.80
2023-01-12T04:37:54.398Z,0.53
2023-01-12T04:40:56.726Z,0.50
2023-01-12T04:43:58.670Z,0.40
2023-01-12T04:47:01.199Z,0.90
2023-01-12T04:50:03.521Z,0.73
2023-01-12T04:53:07.161Z,0.47
2023-01-12T04:56:09.901Z,1.07
2023-01-12T04:59:12.763Z,0.40
2023-01-12T05:02:14.724Z,0.50
2023-01-12T05:05:17.593Z,0.40
2023-01-12T05:08:38.266Z,0.53
2023-01-12T05:11:40.234Z,0.53
2023-01-12T05:14:42.159Z,0.50
2023-01-12T05:17:44.172Z,0.70
2023-01-12T05:20:46.281Z,0.53
2023-01-12T05:23:49.355Z,0.90
2023-01-12T05:26:51.326Z,0.50
2023-01-12T05:29:53.290Z,0.70
2023-01-12T05:32:55.469Z,0.70
2023-01-12T05:35:57.496Z,0.50
2023-01-12T05:39:00.231Z,0.60
2023-01-12T05:42:21.008Z,0.67
2023-01-12T05:45:24.014Z,0.40
2023-01-12T05:48:26.331Z,0.50
2023-01-12T05:51:31.056Z,0.73
2023-01-12T05:54:33.974Z,1.17
2023-01-12T05:57:35.897Z,0.97
2023-01-12T06:00:37.958Z,0.80
2023-01-12T06:03:39.914Z,1.07
2023-01-12T06:06:42.722Z,0.40
2023-01-12T06:09:44.680Z,0.70
2023-01-12T06:13:09.206Z,0.93
2023-01-12T06:16:11.124Z,0.60
2023-01-12T06:19:13.795Z,0.93
2023-01-12T06:22:15.659Z,1.00
2023-01-12T06:25:17.664Z,0.70
2023-01-12T06:28:19.483Z,0.40
2023-01-12T06:31:22.559Z,0.97
2023-01-12T06:34:24.408Z,0.90
2023-01-12T06:37:26.694Z,0.90
2023-01-12T06:40:28.949Z,0.80
2023-01-12T06:43:30.954Z,0.80
2023-01-12T06:46:32.977Z,0.60
2023-01-12T06:49:35.029Z,0.40
2023-01-12T06:52:36.934Z,0.37
2023-01-12T06:55:38.981Z,0.60
2023-01-12T06:58:43.266Z,0.70
2023-01-12T07:01:45.875Z,0.60
2023-01-12T07:04:47.962Z,0.83
2023-01-12T07:07:49.960Z,0.70
2023-01-12T07:10:51.817Z,0.53
2023-01-12T07:13:54.254Z,0.30
2023-01-12T07:16:56.336Z,0.20
2023-01-12T07:19:58.525Z,0.67
2023-01-12T07:23:00.565Z,1.00
2023-01-12T07:26:02.571Z,1.77
2023-01-12T07:29:05.303Z,0.93
2023-01-12T07:32:07.719Z,1.33
2023-01-12T07:35:09.836Z,0.80
2023-01-12T07:38:11.814Z,0.90
2023-01-12T07:41:32.041Z,0.70
2023-01-12T07:44:34.052Z,0.70
2023-01-12T07:47:36.447Z,0.80
2023-01-12T07:50:38.707Z,1.10
2023-01-12T07:53:40.666Z,0.80
2023-01-12T07:56:44.337Z,0.87
2023-01-12T07:59:46.285Z,1.00
2023-01-12T08:02:48.906Z,0.80
2023-01-12T08:05:50.836Z,1.30
2023-01-12T08:08:54.853Z,0.80
2023-01-12T08:11:57.135Z,1.10
2023-01-12T08:15:00.948Z,0.80
2023-01-12T08:18:13.799Z,0.83
2023-01-12T08:21:19.615Z,0.63
2023-01-12T08:24:24.820Z,0.90
2023-01-12T08:27:29.276Z,1.07
2023-01-12T08:30:31.846Z,1.23
2023-01-12T08:33:34.649Z,0.93
2023-01-12T08:36:37.243Z,2.40
2023-01-12T08:39:40.663Z,1.57
2023-01-12T08:42:42.666Z,2.07
2023-01-12T08:45:45.090Z,1.50
2023-01-12T08:48:46.995Z,0.70
2023-01-12T08:51:49.120Z,1.17
2023-01-12T08:54:51.380Z,0.70
2023-01-12T08:57:53.376Z,0.50
2023-01-12T09:00:55.624Z,0.90
2023-01-12T09:03:59.184Z,0.80
2023-01-12T09:07:01.073Z,0.50
2023-01-12T09:10:03.105Z,0.50
2023-01-12T09:13:05.033Z,0.67
2023-01-12T09:16:13.658Z,0.90
2023-01-12T09:19:15.693Z,1.00
2023-01-12T09:22:18.011Z,1.00
2023-01-12T09:25:19.938Z,0.90
2023-01-12T09:28:22.058Z,1.13
2023-01-12T09:31:24.433Z,0.70
2023-01-12T09:34:26.719Z,0.80
2023-01-12T09:37:29.379Z,1.00
2023-01-12T09:40:31.456Z,1.10
2023-01-12T09:43:51.801Z,1.30
2023-01-12T09:46:59.967Z,1.10
2023-01-12T09:50:20.675Z,0.80
2023-01-12T09:53:29.279Z,0.67
2023-01-12T09:56:32.475Z,0.80
2023-01-12T09:59:49.823Z,1.00
2023-01-12T10:03:15.845Z,0.90
2023-01-12T10:06:19.488Z,0.90
2023-01-12T10:09:22.377Z,1.27
2023-01-12T10:12:32.660Z,1.63
2023-01-12T10:15:58.365Z,0.93
2023-01-12T10:19:11.636Z,0.80
2023-01-12T10:22:40.096Z,1.00
2023-01-12T10:25:51.177Z,1.10
2023-01-12T10:28:55.707Z,0.70
2023-01-12T10:31:58.616Z,0.50
2023-01-12T10:35:01.563Z,0.90
2023-01-12T10:38:15.037Z,0.90
2023-01-12T10:41:21.196Z,0.70
2023-01-12T10:44:23.177Z,0.80
2023-01-12T10:47:25.093Z,1.00
2023-01-12T10:50:30.207Z,0.80
2023-01-12T10:53:51.108Z,0.60
2023-01-12T10:57:00.612Z,1.00
2023-01-12T11:00:03.137Z,0.80
2023-01-12T11:03:30.902Z,0.50
2023-01-12T11:06:33.354Z,0.60
2023-01-12T11:09:35.335Z,0.80
2023-01-12T11:12:38.937Z,0.90
2023-01-12T11:15:55.965Z,0.67
2023-01-12T11:19:18.248Z,0.87
2023-01-12T11:22:28.492Z,0.50
2023-01-12T11:25:39.117Z,0.37
2023-01-12T11:28:46.816Z,0.70
2023-01-12T11:31:50.128Z,1.00
2023-01-12T11:34:57.633Z,0.50
2023-01-12T11:38:03.625Z,0.73
2023-01-12T11:41:36.321Z,0.97
2023-01-12T11:45:08.237Z,0.80
2023-01-12T11:48:20.789Z,1.10
2023-01-12T11:51:22.747Z,1.37
2023-01-12T11:54:29.080Z,1.57
2023-01-12T11:57:33.956Z,1.00
2023-01-12T12:00:50.372Z,0.93
2023-01-12T12:03:56.817Z,1.00
2023-01-12T12:07:16.874Z,1.07
2023-01-12T12:10:43.705Z,1.90
2023-01-12T12:13:51.644Z,1.00
2023-01-12T12:17:03.772Z,0.80
2023-01-12T12:20:33.439Z,0.60
2023-01-12T12:23:50.897Z,0.90
2023-01-12T12:27:14.964Z,0.70
2023-01-12T12:30:25.803Z,1.00
2023-01-12T12:33:38.281Z,0.70
2023-01-12T12:36:59.096Z,1.17
2023-01-12T12:40:28.836Z,2.03
2023-01-12T12:43:51.681Z,1.70
2023-01-12T12:47:06.687Z,1.17
2023-01-12T12:50:18.241Z,1.00
2023-01-12T12:53:25.999Z,1.20
2023-01-12T12:56:29.081Z,0.77
2023-01-12T12:59:34.237Z,0.80
2023-01-12T13:02:55.934Z,1.17
2023-01-12T13:06:27.651Z,1.00
2023-01-12T13:09:29.536Z,1.07
2023-01-12T13:12:36.919Z,1.10
2023-01-12T13:15:39.263Z,1.00
2023-01-12T13:19:01.149Z,0.90
2023-01-12T13:22:34.016Z,0.87
2023-01-12T13:25:36.329Z,1.07
2023-01-12T13:28:38.307Z,0.90
2023-01-12T13:31:40.414Z,0.90
2023-01-12T13:34:44.603Z,0.90
2023-01-12T13:38:03.196Z,0.60
2023-01-12T13:41:14.282Z,0.80
2023-01-12T13:44:37.508Z,1.10
2023-01-12T13:47:39.550Z,1.20
2023-01-12T13:50:48.279Z,0.80
2023-01-12T13:54:06.227Z,0.77
2023-01-12T13:57:19.275Z,0.90
2023-01-12T14:00:22.745Z,0.77
2023-01-12T14:03:38.787Z,1.07
2023-01-12T14:06:44.112Z,1.30
2023-01-12T14:10:05.612Z,2.10
2023-01-12T14:13:26.217Z,1.93
2023-01-12T14:17:05.164Z,2.90
2023-01-12T14:20:19.132Z,1.30
2023-01-12T14:23:23.257Z,0.80
2023-01-12T14:26:27.603Z,0.80
2023-01-12T14:29:29.564Z,0.77
2023-01-12T14:32:31.495Z,0.60
2023-01-12T14:35:34.410Z,0.87
2023-01-12T14:38:40.592Z,0.80
2023-01-12T14:42:06.112Z,1.00
2023-01-12T14:45:45.202Z,1.60
2023-01-12T14:48:59.540Z,1.90
2023-01-12T14:52:04.122Z,1.10
2023-01-12T14:55:26.617Z,0.70
2023-01-12T14:58:28.551Z,1.40
2023-01-12T15:01:38.573Z,2.83
2023-01-12T15:04:59.541Z,1.23
2023-01-12T15:08:03.864Z,1.13
2023-01-12T15:11:10.659Z,0.93
2023-01-12T15:14:22.202Z,1.00
2023-01-12T15:17:42.392Z,0.90
2023-01-12T15:21:03.990Z,0.87
2023-01-12T15:24:36.293Z,0.50
2023-01-12T15:27:40.282Z,0.60
2023-01-12T15:30:42.225Z,0.50
2023-01-12T15:33:44.577Z,0.50
2023-01-12T15:36:46.404Z,0.73
2023-01-12T15:39:48.526Z,0.50
2023-01-12T15:42:53.031Z,0.77
2023-01-12T15:45:55.405Z,0.70
2023-01-12T15:48:57.405Z,0.50
2023-01-12T15:52:00.700Z,0.60
2023-01-12T15:55:02.627Z,0.63
2023-01-12T15:58:05.225Z,0.80
2023-01-12T16:01:10.672Z,0.67
2023-01-12T16:07:48.376Z,0.73
2023-01-12T16:11:09.604Z,0.60
2023-01-12T16:14:13.586Z,0.60
2023-01-12T16:17:15.608Z,0.60
2023-01-12T16:20:19.581Z,0.93
2023-01-12T16:23:21.535Z,0.60
2023-01-12T16:26:23.815Z,0.60
2023-01-12T16:29:25.791Z,1.40
2023-01-12T16:32:28.300Z,0.90
2023-01-12T16:35:33.330Z,0.90
2023-01-12T16:38:35.748Z,0.97
2023-01-12T16:41:38.234Z,1.43
2023-01-12T16:44:41.017Z,1.70
2023-01-12T16:47:43.049Z,2.10
2023-01-12T16:50:45.525Z,1.50
2023-01-12T16:53:51.816Z,0.80
2023-01-12T16:56:54.181Z,1.00
2023-01-12T16:59:56.047Z,1.83
2023-01-12T17:02:58.489Z,1.30
2023-01-12T17:06:00.673Z,1.50
2023-01-12T17:09:03.161Z,1.47
2023-01-12T17:12:06.122Z,1.50
2023-01-12T17:15:09.473Z,2.20
2023-01-12T17:18:11.974Z,1.13
2023-01-12T17:21:15.157Z,0.90
2023-01-12T17:24:20.226Z,0.80
2023-01-12T17:27:23.101Z,2.23
2023-01-12T17:30:25.582Z,1.93
2023-01-12T17:33:27.778Z,1.90
2023-01-12T17:36:30.971Z,0.90
2023-01-12T17:39:33.016Z,1.03
2023-01-12T17:42:53.772Z,1.33
2023-01-12T17:45:55.832Z,2.37
2023-01-12T17:48:59.385Z,2.30
2023-01-12T17:52:01.341Z,2.33
2023-01-12T17:55:03.759Z,2.00
2023-01-12T17:58:06.600Z,1.70
2023-01-12T18:01:13.077Z,1.00
2023-01-12T18:04:15.516Z,2.10
2023-01-12T18:07:17.938Z,2.70
2023-01-12T18:10:21.093Z,3.40
2023-01-12T18:13:23.261Z,4.30
2023-01-12T18:16:25.886Z,3.00
2023-01-12T18:19:27.918Z,3.30
2023-01-12T18:22:29.948Z,2.40
2023-01-12T18:25:31.962Z,2.00
2023-01-12T18:28:34.461Z,1.23
2023-01-12T18:31:38.351Z,1.03
2023-01-12T18:34:46.459Z,0.50
2023-01-12T18:37:48.485Z,0.63
2023-01-12T18:41:10.354Z,0.60
2023-01-12T18:44:12.364Z,0.80
2023-01-12T18:47:33.817Z,0.60
2023-01-12T18:50:54.872Z,0.80
2023-01-12T18:53:56.931Z,1.30
2023-01-12T18:56:59.253Z,0.70
2023-01-12T19:00:18.373Z,1.10
2023-01-12T19:03:20.645Z,1.40
2023-01-12T19:06:36.269Z,1.20
2023-01-12T19:09:38.814Z,1.10
2023-01-12T19:12:41.052Z,0.90
2023-01-12T19:16:02.259Z,1.20
2023-01-12T19:19:04.220Z,1.33
2023-01-12T19:22:24.905Z,1.10
2023-01-12T19:25:45.567Z,0.90
2023-01-12T19:28:48.154Z,0.60
2023-01-12T19:31:50.129Z,0.80
2023-01-12T19:34:56.297Z,1.07
2023-01-12T19:37:58.580Z,0.90
2023-01-12T19:41:32.210Z,1.50
2023-01-12T19:44:34.072Z,1.80
2023-01-12T19:47:37.530Z,0.90
2023-01-12T19:50:40.786Z,1.63
2023-01-12T19:53:43.413Z,0.77
2023-01-12T19:56:47.341Z,1.17
2023-01-12T19:59:49.286Z,0.70
2023-01-12T20:02:51.252Z,1.47
2023-01-12T20:05:53.534Z,1.73
2023-01-12T20:08:55.518Z,1.00
2023-01-12T20:11:57.483Z,1.33
2023-01-12T20:14:59.479Z,1.00
2023-01-12T20:18:03.342Z,2.97
2023-01-12T20:21:09.404Z,5.17
2023-01-12T20:24:11.498Z,2.70
2023-01-12T20:27:13.543Z,1.30
2023-01-12T20:30:25.362Z,4.97
2023-01-12T20:33:35.121Z,8.90
2023-01-12T20:36:39.625Z,10.03
2023-01-12T20:39:41.540Z,3.90
2023-01-12T20:42:43.587Z,1.50
2023-01-12T20:45:45.969Z,1.27
2023-01-12T20:48:48.450Z,0.90
2023-01-12T20:51:50.423Z,1.23
2023-01-12T20:54:52.949Z,2.00
2023-01-12T20:57:54.946Z,1.40
2023-01-12T21:00:57.685Z,1.00
2023-01-12T21:03:59.681Z,2.33
2023-01-12T21:07:02.541Z,2.30
2023-01-12T21:10:07.441Z,0.50
2023-01-12T21:13:09.891Z,1.43
2023-01-12T21:16:18.426Z,5.63
2023-01-12T21:19:20.627Z,1.97
2023-01-12T21:22:22.685Z,0.90
2023-01-12T21:25:28.549Z,0.70
2023-01-12T21:28:30.802Z,1.00
2023-01-12T21:31:33.257Z,1.10
2023-01-12T21:34:35.525Z,0.70
2023-01-12T21:37:37.518Z,1.30
2023-01-12T21:40:39.393Z,4.97
2023-01-12T21:43:42.233Z,4.07
2023-01-12T21:46:44.719Z,3.40
2023-01-12T21:49:46.654Z,2.20
2023-01-12T21:52:48.646Z,1.20
2023-01-12T21:56:04.135Z,1.80
2023-01-12T21:59:06.624Z,1.20
2023-01-12T22:02:09.235Z,1.10
2023-01-12T22:05:13.980Z,1.50
2023-01-12T22:08:16.470Z,1.60
2023-01-12T22:11:18.823Z,1.40
2023-01-12T22:14:20.784Z,1.20
2023-01-12T22:17:22.721Z,1.33
2023-01-12T22:20:25.573Z,1.07
2023-01-12T22:23:27.445Z,1.77
2023-01-12T22:26:31.188Z,2.27
2023-01-12T22:29:33.125Z,3.13
2023-01-12T22:32:35.785Z,3.23
2023-01-12T22:35:37.774Z,1.90
2023-01-12T22:38:40.137Z,1.73
2023-01-12T22:41:42.040Z,2.20
2023-01-12T22:44:44.135Z,2.17
2023-01-12T22:47:48.595Z,1.23
2023-01-12T22:50:53.569Z,1.40
2023-01-12T22:53:55.907Z,1.00
2023-01-12T22:56:58.337Z,1.00
2023-01-12T23:00:00.981Z,0.60
2023-01-12T23:03:08.039Z,0.73
2023-01-12T23:06:14.877Z,1.57
2023-01-12T23:09:16.785Z,1.73
2023-01-12T23:12:18.781Z,1.17
2023-01-12T23:15:20.731Z,1.40
2023-01-12T23:18:29.543Z,0.70
2023-01-12T23:21:31.486Z,1.40
2023-01-12T23:24:33.454Z,2.67
2023-01-12T23:27:35.761Z,2.33
2023-01-12T23:30:37.752Z,1.60
2023-01-12T23:33:40.877Z,1.60
2023-01-12T23:36:42.998Z,1.43
2023-01-12T23:39:44.916Z,1.80
2023-01-12T23:42:46.882Z,1.70
2023-01-12T23:45:49.482Z,0.90
2023-01-12T23:48:53.117Z,0.50
2023-01-12T23:51:55.176Z,0.50
2023-01-12T23:54:58.607Z,0.53
2023-01-12T23:58:00.575Z,0.70
